Time;durP1;ratioP1;P1;durP2;ratioP2;P2;SDS_P1;SDS_P2;PMS_P1;PMS_P2;Temp;Humidity;BMP_temperature;BMP_pressure;BME280_temperature;BME280_humidity;BME280_pressure;Samples;Min_cycle;Max_cycle;Signal;HPM_P1;HPM_P2
2021/01/18 00:00:07;;;;;;;7.45;5.18;;;;;;;;;;4946417;28;20039;-83
2021/01/18 00:02:33;;;;;;;8.75;5.85;;;;;;;;;;4968486;28;20039;-83
2021/01/18 00:04:59;;;;;;;7.63;6.38;;;;;;;;;;4948253;28;20043;-83
2021/01/18 00:07:25;;;;;;;6.00;4.78;;;;;;;;;;4917308;29;20125;-84
2021/01/18 00:09:51;;;;;;;7.18;4.90;;;;;;;;;;4952595;28;20051;-83
2021/01/18 00:12:17;;;;;;;8.32;5.38;;;;;;;;;;4967296;28;20579;-83
2021/01/18 00:14:44;;;;;;;7.18;5.13;;;;;;;;;;4949331;28;20039;-83
2021/01/18 00:17:10;;;;;;;7.50;4.75;;;;;;;;;;4964863;28;20043;-84
2021/01/18 00:19:37;;;;;;;7.13;6.03;;;;;;;;;;4932448;28;20047;-83
2021/01/18 00:22:03;;;;;;;6.15;4.68;;;;;;;;;;4970612;28;20050;-83
2021/01/18 00:24:29;;;;;;;7.90;5.30;;;;;;;;;;4965545;28;20395;-83
2021/01/18 00:26:55;;;;;;;8.07;5.47;;;;;;;;;;4964557;28;20054;-83
2021/01/18 00:29:21;;;;;;;6.70;4.80;;;;;;;;;;4958210;28;20479;-83
2021/01/18 00:31:48;;;;;;;6.70;4.78;;;;;;;;;;4939798;29;20040;-83
2021/01/18 00:34:13;;;;;;;8.05;4.82;;;;;;;;;;4958455;29;20051;-83
2021/01/18 00:36:46;;;;;;;7.68;5.40;;;;;;;;;;4968675;28;20058;-82
2021/01/18 00:39:11;;;;;;;6.88;4.75;;;;;;;;;;4978168;28;20043;-83
2021/01/18 00:41:39;;;;;;;9.27;5.20;;;;;;;;;;4969879;28;20070;-83
2021/01/18 00:44:06;;;;;;;7.75;5.22;;;;;;;;;;4958751;29;20103;-83
2021/01/18 00:46:32;;;;;;;8.43;5.78;;;;;;;;;;4941185;28;20074;-83
2021/01/18 00:48:59;;;;;;;7.10;5.30;;;;;;;;;;4941734;29;20054;-83
2021/01/18 00:51:25;;;;;;;8.30;5.90;;;;;;;;;;4958575;28;20392;-83
2021/01/18 00:53:51;;;;;;;10.23;6.03;;;;;;;;;;4940650;29;20074;-83
2021/01/18 00:56:17;;;;;;;8.93;5.82;;;;;;;;;;4958549;29;20460;-83
2021/01/18 00:58:43;;;;;;;7.65;5.43;;;;;;;;;;4941082;29;20039;-83
2021/01/18 01:01:09;;;;;;;9.25;6.68;;;;;;;;;;4958698;28;20049;-83
2021/01/18 01:03:35;;;;;;;7.25;5.25;;;;;;;;;;4977248;28;20049;-83
2021/01/18 01:06:02;;;;;;;9.15;5.90;;;;;;;;;;4975837;28;20133;-83
2021/01/18 01:08:28;;;;;;;7.57;5.10;;;;;;;;;;4976965;28;20043;-83
2021/01/18 01:10:54;;;;;;;7.38;5.30;;;;;;;;;;4960722;28;20078;-82
2021/01/18 01:13:20;;;;;;;9.25;5.93;;;;;;;;;;4959577;28;20047;-83
2021/01/18 01:15:46;;;;;;;7.43;5.03;;;;;;;;;;4976738;28;20042;-83
2021/01/18 01:18:12;;;;;;;9.27;5.65;;;;;;;;;;4959372;28;20121;-83
2021/01/18 01:20:38;;;;;;;8.00;5.53;;;;;;;;;;4959954;28;20131;-83
2021/01/18 01:23:06;;;;;;;7.40;5.10;;;;;;;;;;4977534;28;20062;-83
2021/01/18 01:25:32;;;;;;;7.28;5.20;;;;;;;;;;4960320;28;20047;-84
2021/01/18 01:27:58;;;;;;;9.48;5.25;;;;;;;;;;4961061;28;20046;-83
2021/01/18 01:30:25;;;;;;;6.43;4.85;;;;;;;;;;4976974;28;20464;-83
2021/01/18 01:32:52;;;;;;;7.68;5.15;;;;;;;;;;4961589;28;20404;-83
2021/01/18 01:35:21;;;;;;;8.80;5.32;;;;;;;;;;4957689;29;20069;-82
2021/01/18 01:37:47;;;;;;;8.32;4.90;;;;;;;;;;4957381;28;20043;-83
2021/01/18 01:40:15;;;;;;;8.57;4.88;;;;;;;;;;4956741;28;20051;-83
2021/01/18 01:42:42;;;;;;;7.82;5.07;;;;;;;;;;4957486;29;20043;-83
2021/01/18 01:45:10;;;;;;;7.90;4.85;;;;;;;;;;4940099;29;20066;-83
2021/01/18 01:47:38;;;;;;;8.05;5.13;;;;;;;;;;4956965;29;20058;-83
2021/01/18 01:50:07;;;;;;;9.27;4.93;;;;;;;;;;4940061;29;20054;-83
2021/01/18 01:52:34;;;;;;;7.97;4.97;;;;;;;;;;4956587;28;20055;-83
2021/01/18 01:55:01;;;;;;;7.45;4.88;;;;;;;;;;4957844;29;20047;-84
2021/01/18 01:57:29;;;;;;;8.57;4.85;;;;;;;;;;4924244;29;20054;-83
2021/01/18 01:59:57;;;;;;;8.30;5.63;;;;;;;;;;4956694;28;20047;-83
2021/01/18 02:02:24;;;;;;;8.43;5.07;;;;;;;;;;4957233;29;20094;-83
2021/01/18 02:04:50;;;;;;;7.95;4.85;;;;;;;;;;4956319;29;20046;-83
2021/01/18 02:07:24;;;;;;;8.95;5.75;;;;;;;;;;4957448;29;20058;-83
2021/01/18 02:09:50;;;;;;;7.55;4.95;;;;;;;;;;4956727;29;20532;-83
2021/01/18 02:12:16;;;;;;;8.55;5.07;;;;;;;;;;4955879;29;20043;-83
2021/01/18 02:15:00;;;;;;;9.10;5.35;;;;;;;;;;4940180;29;20047;-83
2021/01/18 02:17:35;;;;;;;7.45;5.30;;;;;;;;;;4955567;29;20484;-83
2021/01/18 02:20:30;;;;;;;8.50;5.38;;;;;;;;;;4956723;29;20488;-83
2021/01/18 02:23:25;;;;;;;7.85;5.18;;;;;;;;;;4957345;29;20043;-83
2021/01/18 02:25:52;;;;;;;10.07;5.13;;;;;;;;;;4957211;29;20047;-83
2021/01/18 02:28:25;;;;;;;8.73;5.97;;;;;;;;;;4956319;29;20483;-83
2021/01/18 02:31:26;;;;;;;8.20;5.38;;;;;;;;;;4957440;29;20043;-83
2021/01/18 02:34:10;;;;;;;9.90;5.68;;;;;;;;;;4957541;29;20372;-83
2021/01/18 02:36:45;;;;;;;9.98;5.70;;;;;;;;;;4956199;29;20503;-83
2021/01/18 02:39:16;;;;;;;7.95;5.22;;;;;;;;;;4956256;29;20480;-82
2021/01/18 02:41:46;;;;;;;8.23;5.55;;;;;;;;;;4957212;29;20043;-83
2021/01/18 02:44:14;;;;;;;8.68;5.10;;;;;;;;;;4956347;29;20043;-83
2021/01/18 02:46:41;;;;;;;7.82;5.70;;;;;;;;;;4956193;29;20479;-83
2021/01/18 02:49:07;;;;;;;10.35;5.78;;;;;;;;;;4939350;29;20491;-83
2021/01/18 02:51:36;;;;;;;9.18;5.75;;;;;;;;;;4956655;29;20116;-83
2021/01/18 02:54:04;;;;;;;8.90;5.75;;;;;;;;;;4956680;29;20050;-83
2021/01/18 02:56:33;;;;;;;8.07;5.00;;;;;;;;;;4956866;28;20047;-83
2021/01/18 02:59:00;;;;;;;8.95;4.95;;;;;;;;;;4956427;29;20047;-83
2021/01/18 03:01:56;;;;;;;6.50;4.40;;;;;;;;;;4955850;28;20051;-83
2021/01/18 03:04:33;;;;;;;7.43;4.60;;;;;;;;;;4956084;29;20054;-83
2021/01/18 03:07:02;;;;;;;7.88;4.80;;;;;;;;;;4956795;29;20047;-83
2021/01/18 03:09:32;;;;;;;14.00;5.20;;;;;;;;;;4938981;29;20047;-83
2021/01/18 03:12:03;;;;;;;9.73;5.18;;;;;;;;;;4960882;28;20051;-83
2021/01/18 03:14:30;;;;;;;6.95;3.90;;;;;;;;;;4942984;29;20511;-83
2021/01/18 03:16:57;;;;;;;8.52;5.53;;;;;;;;;;4960340;29;20039;-83
2021/01/18 03:19:41;;;;;;;6.80;4.53;;;;;;;;;;4943763;29;20047;-83
2021/01/18 03:22:07;;;;;;;9.55;5.20;;;;;;;;;;4960630;28;20043;-83
2021/01/18 03:24:34;;;;;;;9.02;4.85;;;;;;;;;;4959736;29;20039;-83
2021/01/18 03:27:02;;;;;;;8.50;4.82;;;;;;;;;;4959862;29;20043;-83
2021/01/18 03:29:29;;;;;;;8.52;5.20;;;;;;;;;;4960103;29;20051;-83
2021/01/18 03:31:55;;;;;;;10.43;5.82;;;;;;;;;;4960562;29;20361;-83
2021/01/18 03:34:21;;;;;;;9.52;5.93;;;;;;;;;;4943636;29;20364;-83
2021/01/18 03:36:47;;;;;;;8.98;5.18;;;;;;;;;;4959090;29;20095;-83
2021/01/18 03:39:13;;;;;;;10.93;5.70;;;;;;;;;;4960803;29;20350;-83
2021/01/18 03:41:40;;;;;;;10.52;5.63;;;;;;;;;;4958937;29;20369;-83
2021/01/18 03:44:06;;;;;;;10.43;5.90;;;;;;;;;;4958938;28;20054;-83
2021/01/18 03:46:32;;;;;;;12.20;5.70;;;;;;;;;;4942433;29;20055;-83
2021/01/18 03:48:58;;;;;;;9.13;5.40;;;;;;;;;;4958878;28;20117;-83
2021/01/18 03:51:29;;;;;;;12.52;5.88;;;;;;;;;;4942385;29;20518;-83
2021/01/18 03:53:55;;;;;;;11.40;6.22;;;;;;;;;;4942843;29;20098;-83
2021/01/18 03:56:21;;;;;;;12.13;6.07;;;;;;;;;;4926864;29;20054;-83
2021/01/18 03:58:48;;;;;;;9.50;5.95;;;;;;;;;;4941610;29;20051;-83
2021/01/18 04:01:14;;;;;;;10.60;5.72;;;;;;;;;;4960122;29;20448;-83
2021/01/18 04:03:41;;;;;;;11.43;6.15;;;;;;;;;;4958249;29;20051;-83
2021/01/18 04:06:07;;;;;;;10.00;6.07;;;;;;;;;;4960041;28;20375;-83
2021/01/18 04:08:33;;;;;;;11.13;6.65;;;;;;;;;;4942170;29;20039;-83
2021/01/18 04:10:59;;;;;;;11.30;5.65;;;;;;;;;;4941716;29;20054;-84
2021/01/18 04:13:25;;;;;;;10.60;6.35;;;;;;;;;;4957997;29;20373;-83
2021/01/18 04:15:52;;;;;;;10.38;5.88;;;;;;;;;;4957467;29;20054;-83
2021/01/18 04:18:18;;;;;;;9.82;5.97;;;;;;;;;;4958939;29;20436;-83
2021/01/18 04:20:44;;;;;;;10.27;6.90;;;;;;;;;;4941947;29;20098;-83
2021/01/18 04:23:10;;;;;;;11.63;6.55;;;;;;;;;;4925260;29;20106;-83
2021/01/18 04:25:36;;;;;;;12.18;6.45;;;;;;;;;;4958475;28;20051;-84
2021/01/18 04:28:04;;;;;;;11.13;6.25;;;;;;;;;;4958714;28;20423;-83
2021/01/18 04:30:34;;;;;;;10.73;6.22;;;;;;;;;;4958589;28;20044;-83
2021/01/18 04:33:03;;;;;;;14.27;6.85;;;;;;;;;;4958674;29;20444;-83
2021/01/18 04:35:30;;;;;;;11.88;6.60;;;;;;;;;;4960560;29;20051;-83
2021/01/18 04:37:56;;;;;;;11.77;6.65;;;;;;;;;;4943288;29;20122;-83
2021/01/18 04:40:23;;;;;;;11.40;6.57;;;;;;;;;;4942285;29;20106;-83
2021/01/18 04:42:50;;;;;;;10.52;6.35;;;;;;;;;;4958179;29;20122;-83
2021/01/18 04:45:17;;;;;;;11.00;6.72;;;;;;;;;;4957228;29;20043;-82
2021/01/18 04:47:45;;;;;;;13.85;8.50;;;;;;;;;;4941496;29;20103;-83
2021/01/18 04:50:13;;;;;;;10.95;6.65;;;;;;;;;;4958249;29;20420;-83
2021/01/18 04:52:50;;;;;;;14.07;7.97;;;;;;;;;;4955705;29;20059;-83
2021/01/18 04:55:26;;;;;;;12.15;7.13;;;;;;;;;;4958545;29;20050;-83
2021/01/18 04:57:59;;;;;;;12.75;7.60;;;;;;;;;;4958114;29;20113;-83
2021/01/18 05:00:36;;;;;;;14.80;6.95;;;;;;;;;;4958885;29;20043;-83
2021/01/18 05:03:06;;;;;;;13.93;7.10;;;;;;;;;;4958204;28;20047;-84
2021/01/18 05:05:38;;;;;;;13.82;7.50;;;;;;;;;;4959047;29;20122;-83
2021/01/18 05:08:06;;;;;;;12.40;6.55;;;;;;;;;;4959877;28;20462;-83
2021/01/18 05:10:33;;;;;;;12.88;6.93;;;;;;;;;;4959420;28;20044;-83
2021/01/18 05:13:01;;;;;;;12.82;7.55;;;;;;;;;;4970468;28;20043;-83
2021/01/18 05:15:28;;;;;;;13.88;7.53;;;;;;;;;;4964672;28;20035;-83
2021/01/18 05:18:06;;;;;;;15.23;7.72;;;;;;;;;;4950961;28;20102;-84
2021/01/18 05:20:33;;;;;;;15.05;7.57;;;;;;;;;;4958744;28;20384;-83
2021/01/18 05:23:07;;;;;;;13.00;7.75;;;;;;;;;;4963880;28;20093;-84
2021/01/18 05:25:33;;;;;;;12.27;7.15;;;;;;;;;;4931113;29;20054;-83
2021/01/18 05:28:06;;;;;;;13.13;6.65;;;;;;;;;;4956858;28;20047;-83
2021/01/18 05:30:34;;;;;;;13.88;6.70;;;;;;;;;;4957491;28;20043;-83
2021/01/18 05:33:06;;;;;;;12.30;7.63;;;;;;;;;;4961218;28;20043;-82
2021/01/18 05:35:33;;;;;;;12.45;7.20;;;;;;;;;;4969346;28;20043;-83
2021/01/18 05:38:02;;;;;;;11.18;6.60;;;;;;;;;;4962122;28;20039;-83
2021/01/18 05:40:28;;;;;;;12.13;7.25;;;;;;;;;;4957144;29;20051;-83
2021/01/18 05:43:00;;;;;;;11.13;6.57;;;;;;;;;;4955739;28;20046;-82
2021/01/18 05:45:28;;;;;;;11.73;6.43;;;;;;;;;;4970086;28;20039;-82
2021/01/18 05:47:55;;;;;;;12.07;7.05;;;;;;;;;;4971618;28;20436;-83
2021/01/18 05:50:23;;;;;;;13.75;7.25;;;;;;;;;;4971444;28;20050;-82
2021/01/18 05:52:49;;;;;;;11.32;6.68;;;;;;;;;;4970326;28;20043;-82
2021/01/18 05:55:17;;;;;;;12.15;7.70;;;;;;;;;;4965026;28;20050;-82
2021/01/18 05:57:47;;;;;;;10.60;6.57;;;;;;;;;;4947548;28;20364;-82
2021/01/18 06:00:15;;;;;;;11.38;8.05;;;;;;;;;;4974925;28;20387;-82
2021/01/18 06:02:46;;;;;;;14.18;6.60;;;;;;;;;;4974468;28;20047;-83
2021/01/18 06:05:14;;;;;;;12.48;7.47;;;;;;;;;;4971281;28;20047;-84
2021/01/18 06:07:40;;;;;;;13.73;7.40;;;;;;;;;;4974612;28;20075;-84
2021/01/18 06:10:10;;;;;;;12.27;7.03;;;;;;;;;;4960157;28;20075;-83
2021/01/18 06:12:36;;;;;;;13.20;8.45;;;;;;;;;;4958221;28;20057;-83
2021/01/18 06:15:05;;;;;;;12.52;6.63;;;;;;;;;;4979058;28;20042;-85
2021/01/18 06:17:31;;;;;;;12.48;7.22;;;;;;;;;;4973550;28;20043;-84
2021/01/18 06:19:59;;;;;;;11.05;7.15;;;;;;;;;;4965340;29;20043;-85
2021/01/18 06:22:26;;;;;;;11.95;6.93;;;;;;;;;;4965698;29;20046;-84
2021/01/18 06:24:55;;;;;;;11.95;7.35;;;;;;;;;;4965294;28;20039;-82
2021/01/18 06:27:40;;;;;;;13.68;8.48;;;;;;;;;;4962717;29;20062;-83
2021/01/18 06:30:20;;;;;;;14.05;7.20;;;;;;;;;;4961813;28;20051;-82
2021/01/18 06:32:50;;;;;;;13.57;8.02;;;;;;;;;;4977640;28;20053;-82
2021/01/18 06:35:23;;;;;;;13.35;6.97;;;;;;;;;;4976089;28;20047;-82
2021/01/18 06:37:58;;;;;;;12.45;7.10;;;;;;;;;;4958172;28;20042;-82
2021/01/18 06:40:29;;;;;;;11.95;7.30;;;;;;;;;;4975144;28;20061;-82
2021/01/18 06:42:57;;;;;;;12.52;7.55;;;;;;;;;;4974563;28;20519;-82
2021/01/18 06:45:23;;;;;;;11.88;7.15;;;;;;;;;;4973971;28;20392;-82
2021/01/18 06:47:49;;;;;;;12.68;6.97;;;;;;;;;;4956377;28;20054;-84
2021/01/18 06:50:15;;;;;;;11.05;6.75;;;;;;;;;;4958389;28;20043;-83
2021/01/18 06:52:46;;;;;;;9.27;5.68;;;;;;;;;;4974986;28;20458;-84
2021/01/18 06:55:17;;;;;;;10.00;7.05;;;;;;;;;;4957332;28;20070;-86
2021/01/18 06:58:02;;;;;;;12.68;7.40;;;;;;;;;;4974401;28;20054;-81
2021/01/18 07:00:29;;;;;;;12.93;6.93;;;;;;;;;;4975229;28;20046;-84
2021/01/18 07:02:56;;;;;;;10.88;6.30;;;;;;;;;;4953570;28;20518;-84
2021/01/18 07:05:36;;;;;;;11.65;6.53;;;;;;;;;;4966335;28;20503;-83
2021/01/18 07:08:13;;;;;;;10.68;6.47;;;;;;;;;;4962333;28;20054;-83
2021/01/18 07:10:45;;;;;;;12.02;6.50;;;;;;;;;;4945738;28;20487;-83
2021/01/18 07:13:12;;;;;;;11.05;5.80;;;;;;;;;;4965147;28;20043;-83
2021/01/18 07:15:40;;;;;;;13.13;6.97;;;;;;;;;;4965746;28;20064;-84
2021/01/18 07:18:08;;;;;;;12.07;6.72;;;;;;;;;;4966854;28;20066;-85
2021/01/18 07:20:39;;;;;;;13.27;7.30;;;;;;;;;;4969334;28;20094;-84
2021/01/18 07:23:26;;;;;;;14.10;7.13;;;;;;;;;;4965896;28;20043;-86
2021/01/18 07:26:05;;;;;;;10.23;5.90;;;;;;;;;;4962182;28;20039;-86
2021/01/18 07:28:32;;;;;;;13.45;6.28;;;;;;;;;;4980943;28;20054;-82
2021/01/18 07:30:59;;;;;;;11.23;6.97;;;;;;;;;;4976087;28;20094;-82
2021/01/18 07:33:25;;;;;;;10.27;6.03;;;;;;;;;;4962738;28;20058;-82
2021/01/18 07:35:51;;;;;;;10.38;6.10;;;;;;;;;;4963362;28;20079;-82
2021/01/18 07:38:18;;;;;;;14.40;7.70;;;;;;;;;;4980663;28;20039;-83
2021/01/18 07:41:12;;;;;;;13.10;6.32;;;;;;;;;;4981281;28;20050;-83
2021/01/18 07:43:40;;;;;;;11.48;6.40;;;;;;;;;;4980120;28;20094;-83
2021/01/18 07:46:38;;;;;;;12.52;7.18;;;;;;;;;;4979892;28;20110;-83
2021/01/18 07:49:33;;;;;;;11.65;6.20;;;;;;;;;;4976894;28;20047;-83
2021/01/18 07:52:18;;;;;;;14.75;7.07;;;;;;;;;;4972764;28;20043;-83
2021/01/18 07:54:45;;;;;;;13.00;5.95;;;;;;;;;;4970902;28;20047;-83
2021/01/18 07:57:24;;;;;;;10.38;5.85;;;;;;;;;;4972157;28;20102;-83
2021/01/18 08:00:26;;;;;;;12.85;6.10;;;;;;;;;;4973463;28;20039;-84
2021/01/18 08:02:53;;;;;;;16.52;8.00;;;;;;;;;;4969884;28;20046;-83
2021/01/18 08:05:24;;;;;;;13.93;7.32;;;;;;;;;;4971863;28;20047;-84
2021/01/18 08:08:04;;;;;;;12.35;6.72;;;;;;;;;;4966593;28;20035;-84
2021/01/18 08:10:50;;;;;;;13.90;6.45;;;;;;;;;;4975921;28;20063;-82
2021/01/18 08:13:54;;;;;;;8.98;5.50;;;;;;;;;;4969780;28;20047;-84
2021/01/18 08:16:28;;;;;;;12.07;6.95;;;;;;;;;;4964473;29;20047;-84
2021/01/18 08:19:07;;;;;;;10.07;6.30;;;;;;;;;;4961874;29;20480;-84
2021/01/18 08:21:42;;;;;;;16.60;10.48;;;;;;;;;;4959374;29;20043;-83
2021/01/18 08:24:10;;;;;;;12.52;7.00;;;;;;;;;;4963704;29;20376;-84
2021/01/18 08:26:58;;;;;;;13.40;6.30;;;;;;;;;;4961269;29;20411;-84
2021/01/18 08:29:45;;;;;;;9.05;5.15;;;;;;;;;;4975462;28;20047;-84
2021/01/18 08:32:38;;;;;;;15.45;6.43;;;;;;;;;;4966982;28;20408;-84
2021/01/18 08:35:07;;;;;;;11.55;5.63;;;;;;;;;;4977191;28;20476;-81
2021/01/18 08:37:34;;;;;;;10.90;6.10;;;;;;;;;;4979236;28;20047;-84
2021/01/18 08:40:01;;;;;;;13.07;6.22;;;;;;;;;;4978216;28;20403;-84
2021/01/18 08:42:28;;;;;;;11.43;6.55;;;;;;;;;;4961466;28;20046;-85
2021/01/18 08:44:59;;;;;;;12.25;6.85;;;;;;;;;;4978462;28;20042;-84
2021/01/18 08:47:41;;;;;;;10.23;5.63;;;;;;;;;;4974623;28;20050;-82
2021/01/18 08:50:21;;;;;;;10.73;5.22;;;;;;;;;;4958917;29;20111;-83
2021/01/18 08:52:48;;;;;;;11.93;5.25;;;;;;;;;;4959517;29;20039;-82
2021/01/18 08:55:42;;;;;;;12.35;5.43;;;;;;;;;;4960752;29;20040;-82
2021/01/18 08:58:08;;;;;;;9.13;5.28;;;;;;;;;;4960462;29;20051;-82
2021/01/18 09:00:42;;;;;;;8.98;4.70;;;;;;;;;;4960438;28;20044;-83
2021/01/18 09:03:10;;;;;;;10.38;4.70;;;;;;;;;;4959797;29;20468;-83
2021/01/18 09:05:37;;;;;;;11.15;4.80;;;;;;;;;;4960490;29;20551;-83
2021/01/18 09:08:07;;;;;;;11.90;4.93;;;;;;;;;;4941595;28;20051;-83
2021/01/18 09:10:33;;;;;;;8.95;4.47;;;;;;;;;;4958778;28;20467;-83
2021/01/18 09:13:02;;;;;;;10.95;5.47;;;;;;;;;;4946207;28;20129;-83
2021/01/18 09:15:29;;;;;;;10.38;5.43;;;;;;;;;;4957898;28;20035;-84
2021/01/18 09:17:55;;;;;;;9.88;5.13;;;;;;;;;;4949188;28;20050;-85
2021/01/18 09:20:22;;;;;;;10.77;5.15;;;;;;;;;;4966235;28;20039;-83
2021/01/18 09:22:48;;;;;;;9.07;5.00;;;;;;;;;;4977262;28;20399;-85
2021/01/18 09:25:15;;;;;;;10.90;5.38;;;;;;;;;;4953418;28;20137;-84
2021/01/18 09:27:41;;;;;;;11.55;5.03;;;;;;;;;;4946224;28;20049;-82
2021/01/18 09:30:09;;;;;;;10.02;6.05;;;;;;;;;;4951795;28;20043;-82
2021/01/18 09:32:36;;;;;;;12.13;5.53;;;;;;;;;;4959383;29;20054;-83
2021/01/18 09:35:06;;;;;;;8.27;5.13;;;;;;;;;;4957945;29;20062;-83
2021/01/18 09:37:33;;;;;;;9.05;5.18;;;;;;;;;;4957557;29;20051;-82
2021/01/18 09:40:07;;;;;;;8.98;5.05;;;;;;;;;;4958175;29;20070;-82
2021/01/18 09:42:34;;;;;;;8.65;5.38;;;;;;;;;;4957338;29;20424;-83
2021/01/18 09:45:00;;;;;;;8.85;5.07;;;;;;;;;;4940180;29;20054;-83
2021/01/18 09:47:26;;;;;;;8.90;5.30;;;;;;;;;;4958390;29;20122;-83
2021/01/18 09:49:52;;;;;;;9.48;4.88;;;;;;;;;;4957080;29;20480;-83
2021/01/18 09:52:18;;;;;;;10.25;5.30;;;;;;;;;;4924742;29;20142;-82
2021/01/18 09:54:47;;;;;;;8.90;4.90;;;;;;;;;;4940750;29;20542;-83
2021/01/18 09:57:15;;;;;;;8.85;5.35;;;;;;;;;;4956238;28;20071;-83
2021/01/18 09:59:42;;;;;;;11.43;5.13;;;;;;;;;;4959519;29;20047;-83
2021/01/18 10:02:11;;;;;;;8.05;4.90;;;;;;;;;;4948767;28;20124;-84
2021/01/18 10:04:39;;;;;;;11.88;5.30;;;;;;;;;;4977442;28;20043;-84
2021/01/18 10:07:09;;;;;;;7.80;5.13;;;;;;;;;;4977386;28;20467;-84
2021/01/18 10:09:35;;;;;;;11.23;5.00;;;;;;;;;;4977492;28;20050;-84
2021/01/18 10:12:05;;;;;;;15.10;5.05;;;;;;;;;;4928638;28;20107;-84
2021/01/18 10:14:31;;;;;;;11.15;5.30;;;;;;;;;;4978592;28;20042;-86
2021/01/18 10:16:58;;;;;;;10.57;5.03;;;;;;;;;;4945310;28;20399;-84
2021/01/18 10:19:25;;;;;;;8.75;5.22;;;;;;;;;;4977531;28;20042;-84
2021/01/18 10:21:51;;;;;;;10.43;5.15;;;;;;;;;;4977076;28;20043;-84
2021/01/18 10:24:24;;;;;;;8.88;5.25;;;;;;;;;;4978513;28;20047;-84
2021/01/18 10:26:51;;;;;;;10.77;5.45;;;;;;;;;;4962356;28;20054;-83
2021/01/18 10:29:22;;;;;;;8.57;4.53;;;;;;;;;;4959102;28;20391;-84
2021/01/18 10:31:51;;;;;;;7.45;4.45;;;;;;;;;;4959928;29;20102;-84
2021/01/18 10:34:26;;;;;;;10.13;6.07;;;;;;;;;;4958857;28;20039;-83
2021/01/18 10:36:54;;;;;;;8.57;4.90;;;;;;;;;;4959790;29;20107;-84
2021/01/18 10:39:28;;;;;;;9.32;5.10;;;;;;;;;;4947042;28;20055;-84
2021/01/18 10:42:01;;;;;;;7.88;4.53;;;;;;;;;;4977947;28;20047;-84
2021/01/18 10:44:28;;;;;;;9.80;4.95;;;;;;;;;;4978779;28;20499;-85
2021/01/18 10:46:54;;;;;;;8.32;4.50;;;;;;;;;;4978391;28;20058;-84
2021/01/18 10:49:25;;;;;;;8.65;4.75;;;;;;;;;;4978048;28;20042;-83
2021/01/18 10:51:58;;;;;;;7.13;4.30;;;;;;;;;;4976295;28;20049;-84
2021/01/18 10:54:25;;;;;;;8.43;4.45;;;;;;;;;;4956214;28;20039;-84
2021/01/18 10:56:51;;;;;;;8.48;4.90;;;;;;;;;;4944872;28;20043;-83
2021/01/18 10:59:17;;;;;;;7.18;4.50;;;;;;;;;;4976387;28;20046;-84
2021/01/18 11:02:00;;;;;;;7.25;4.05;;;;;;;;;;4973294;28;20042;-84
2021/01/18 11:04:28;;;;;;;7.05;3.53;;;;;;;;;;4965957;28;20039;-83
2021/01/18 11:06:55;;;;;;;12.38;5.45;;;;;;;;;;4951301;29;20095;-83
2021/01/18 11:09:29;;;;;;;7.45;4.13;;;;;;;;;;4966017;28;20047;-84
2021/01/18 11:11:57;;;;;;;9.25;4.35;;;;;;;;;;4966532;28;20042;-86
2021/01/18 11:14:23;;;;;;;8.07;5.15;;;;;;;;;;4952040;28;20075;-84
2021/01/18 11:17:00;;;;;;;11.95;4.28;;;;;;;;;;4943561;28;20059;-85
2021/01/18 11:19:27;;;;;;;7.95;4.50;;;;;;;;;;4969754;28;20079;-83
2021/01/18 11:21:53;;;;;;;8.07;4.57;;;;;;;;;;4968725;28;20039;-85
2021/01/18 11:24:19;;;;;;;8.38;4.45;;;;;;;;;;4970213;28;20105;-84
2021/01/18 11:26:48;;;;;;;10.57;5.18;;;;;;;;;;4963266;28;20039;-83
2021/01/18 11:29:14;;;;;;;6.82;3.65;;;;;;;;;;4953747;29;20460;-84
2021/01/18 11:31:42;;;;;;;11.20;4.50;;;;;;;;;;4949166;28;20047;-84
2021/01/18 11:34:08;;;;;;;7.03;4.35;;;;;;;;;;4964207;28;20395;-87
2021/01/18 11:36:35;;;;;;;7.45;3.70;;;;;;;;;;4950291;28;20042;-86
2021/01/18 11:39:03;;;;;;;10.02;4.75;;;;;;;;;;4985435;28;20061;-86
2021/01/18 11:41:30;;;;;;;8.68;4.47;;;;;;;;;;4984395;28;20054;-86
2021/01/18 11:43:56;;;;;;;8.85;4.03;;;;;;;;;;4949123;28;20137;-83
2021/01/18 11:46:22;;;;;;;9.43;4.15;;;;;;;;;;4983172;28;20125;-84
2021/01/18 11:48:48;;;;;;;8.25;5.18;;;;;;;;;;4982812;28;20061;-84
2021/01/18 11:51:16;;;;;;;7.38;4.63;;;;;;;;;;4981530;28;20054;-86
2021/01/18 11:53:43;;;;;;;7.03;4.03;;;;;;;;;;4967077;28;20055;-86
2021/01/18 11:56:09;;;;;;;8.30;4.30;;;;;;;;;;4983020;28;20039;-83
2021/01/18 11:58:35;;;;;;;8.02;3.92;;;;;;;;;;4948014;28;20082;-83
2021/01/18 12:01:01;;;;;;;9.65;4.25;;;;;;;;;;4980934;28;20038;-83
2021/01/18 12:03:27;;;;;;;9.40;4.18;;;;;;;;;;4948320;28;20047;-83
2021/01/18 12:05:53;;;;;;;8.65;4.88;;;;;;;;;;4963417;28;20491;-83
2021/01/18 12:08:19;;;;;;;8.32;4.68;;;;;;;;;;4949024;28;20073;-84
2021/01/18 12:10:47;;;;;;;8.45;4.80;;;;;;;;;;4983074;28;20046;-87
2021/01/18 12:13:13;;;;;;;12.73;5.72;;;;;;;;;;4984446;28;20051;-85
2021/01/18 12:15:41;;;;;;;8.15;4.28;;;;;;;;;;4964050;28;20051;-84
2021/01/18 12:18:07;;;;;;;8.40;4.82;;;;;;;;;;4965428;28;20050;-84
2021/01/18 12:20:33;;;;;;;10.70;4.93;;;;;;;;;;4982315;28;20054;-85
2021/01/18 12:22:59;;;;;;;7.47;4.55;;;;;;;;;;4971878;28;20051;-85
2021/01/18 12:25:26;;;;;;;9.95;6.15;;;;;;;;;;4954943;28;20444;-84
2021/01/18 12:27:54;;;;;;;8.35;4.97;;;;;;;;;;4970087;28;20058;-84
2021/01/18 12:30:23;;;;;;;7.95;4.47;;;;;;;;;;4967570;28;20069;-84
2021/01/18 12:32:49;;;;;;;8.10;4.50;;;;;;;;;;4969244;28;20071;-84
2021/01/18 12:35:16;;;;;;;8.20;4.75;;;;;;;;;;4970883;28;20062;-84
2021/01/18 12:37:42;;;;;;;6.53;4.45;;;;;;;;;;4957113;28;20042;-84
2021/01/18 12:40:10;;;;;;;9.57;4.50;;;;;;;;;;4950665;28;20551;-85
2021/01/18 12:42:41;;;;;;;9.65;5.13;;;;;;;;;;4964579;28;20043;-85
2021/01/18 12:45:10;;;;;;;10.68;6.38;;;;;;;;;;4966719;28;20047;-84
2021/01/18 12:47:36;;;;;;;9.48;6.38;;;;;;;;;;4981785;28;20055;-85
2021/01/18 12:50:03;;;;;;;10.35;5.43;;;;;;;;;;4930231;29;20154;-84
2021/01/18 12:52:29;;;;;;;7.82;5.03;;;;;;;;;;4961525;29;20047;-84
2021/01/18 12:54:56;;;;;;;9.35;5.70;;;;;;;;;;4974673;28;20038;-84
2021/01/18 12:57:22;;;;;;;8.00;4.75;;;;;;;;;;4938048;28;20098;-84
2021/01/18 12:59:48;;;;;;;7.10;4.55;;;;;;;;;;4953078;28;20317;-83
2021/01/18 13:02:15;;;;;;;8.32;4.55;;;;;;;;;;4952895;28;20057;-83
2021/01/18 13:04:41;;;;;;;8.10;4.80;;;;;;;;;;4950776;28;20039;-84
2021/01/18 13:07:07;;;;;;;9.13;5.22;;;;;;;;;;4951386;28;20105;-84
2021/01/18 13:09:33;;;;;;;7.95;4.60;;;;;;;;;;4970163;28;20042;-84
2021/01/18 13:11:59;;;;;;;8.52;4.72;;;;;;;;;;4970095;28;20070;-86
2021/01/18 13:14:26;;;;;;;10.85;5.63;;;;;;;;;;4969862;28;20062;-85
2021/01/18 13:16:54;;;;;;;9.05;5.18;;;;;;;;;;4928712;29;20514;-84
2021/01/18 13:19:21;;;;;;;10.10;5.15;;;;;;;;;;4969990;28;20047;-84
2021/01/18 13:21:50;;;;;;;14.25;7.45;;;;;;;;;;4969876;28;20295;-84
2021/01/18 13:24:16;;;;;;;10.52;5.18;;;;;;;;;;4953202;28;20391;-85
2021/01/18 13:26:42;;;;;;;7.80;5.07;;;;;;;;;;4953125;28;20039;-85
2021/01/18 13:29:08;;;;;;;9.88;5.30;;;;;;;;;;4948987;29;20527;-84
2021/01/18 13:31:38;;;;;;;7.75;5.10;;;;;;;;;;4964036;28;20047;-84
2021/01/18 13:34:04;;;;;;;8.70;5.03;;;;;;;;;;4966041;28;20055;-82
2021/01/18 13:36:32;;;;;;;9.80;6.10;;;;;;;;;;4947074;29;20047;-86
2021/01/18 13:38:58;;;;;;;11.00;5.60;;;;;;;;;;4961594;28;20054;-85
2021/01/18 13:41:24;;;;;;;9.70;5.45;;;;;;;;;;4958565;29;20492;-84
2021/01/18 13:43:51;;;;;;;10.15;5.38;;;;;;;;;;4958591;29;20062;-84
2021/01/18 13:46:18;;;;;;;9.63;4.88;;;;;;;;;;4959236;29;20043;-85
2021/01/18 13:48:45;;;;;;;12.70;6.47;;;;;;;;;;4942071;29;20078;-83
2021/01/18 13:51:15;;;;;;;12.77;5.97;;;;;;;;;;4958669;28;20043;-84
2021/01/18 13:53:43;;;;;;;8.77;4.63;;;;;;;;;;4958960;28;20039;-84
2021/01/18 13:56:13;;;;;;;10.32;5.50;;;;;;;;;;4958113;28;20043;-83
2021/01/18 13:58:39;;;;;;;9.80;5.10;;;;;;;;;;4959286;28;20039;-83
2021/01/18 14:01:06;;;;;;;11.38;6.47;;;;;;;;;;4944865;29;20043;-84
2021/01/18 14:03:32;;;;;;;9.88;6.43;;;;;;;;;;4949032;28;20035;-83
2021/01/18 14:05:58;;;;;;;10.57;5.57;;;;;;;;;;4968514;28;20062;-84
2021/01/18 14:08:24;;;;;;;12.07;6.38;;;;;;;;;;4954439;28;20046;-83
2021/01/18 14:10:51;;;;;;;10.20;6.10;;;;;;;;;;4954114;28;20054;-84
2021/01/18 14:13:18;;;;;;;11.27;5.68;;;;;;;;;;4966438;28;20046;-84
2021/01/18 14:15:44;;;;;;;9.75;5.57;;;;;;;;;;4970650;28;20035;-83
2021/01/18 14:18:11;;;;;;;12.15;5.63;;;;;;;;;;4957104;28;20169;-84
2021/01/18 14:20:37;;;;;;;8.45;5.30;;;;;;;;;;4968587;28;20066;-84
2021/01/18 14:23:03;;;;;;;9.25;5.32;;;;;;;;;;4969913;28;20503;-83
2021/01/18 14:25:29;;;;;;;9.75;5.00;;;;;;;;;;4949904;28;20376;-83
2021/01/18 14:27:56;;;;;;;8.07;5.47;;;;;;;;;;4917823;28;20047;-84
2021/01/18 14:30:23;;;;;;;11.27;5.68;;;;;;;;;;4950936;28;20122;-83
2021/01/18 14:32:49;;;;;;;9.15;5.55;;;;;;;;;;4965857;28;20039;-83
2021/01/18 14:35:15;;;;;;;12.38;6.00;;;;;;;;;;4947706;28;20058;-83
2021/01/18 14:37:41;;;;;;;7.13;5.03;;;;;;;;;;4950588;28;20050;-83
2021/01/18 14:40:09;;;;;;;8.77;5.35;;;;;;;;;;4967254;28;20046;-83
2021/01/18 14:42:38;;;;;;;9.77;5.07;;;;;;;;;;4963636;28;20050;-83
2021/01/18 14:45:08;;;;;;;11.02;5.95;;;;;;;;;;4947845;28;20055;-82
2021/01/18 14:47:38;;;;;;;9.93;4.75;;;;;;;;;;4965974;28;20046;-84